Terminal Aerodrome Forecast
Issued by NWS

Home | Current Version | Previous Version | Text Only | Print | Product List | Glossary On
Versions: 1 2 3 4 5 6 7 8 9 10 11 12 13 14 15 16 17 18 19 20 21 22 23 24 25 26 27 28 29 30 31 32 33
000
FTUS45 KGJT 271131
TAFEGE
TAF
KEGE 271131Z 2712/2812 VRB03KT P6SM VCSH SCT025 OVC040
      TEMPO 2712/2714 -SN BKN025
     FM271400 VRB02KT P6SM VCFG FEW010 SCT030 OVC060
     FM271700 VRB03KT P6SM SCT060 BKN250
     FM280200 11004KT P6SM BKN250
      AMD LTD TO CLD VIS AND WIND TIL 271400=

USA.gov is the U.S. government's official web portal to all federal, state and local government web resources and services.